Time;durP1;ratioP1;P1;durP2;ratioP2;P2;SDS_P1;SDS_P2;PMS_P1;PMS_P2;Temp;Humidity;BMP_temperature;BMP_pressure;BME280_temperature;BME280_humidity;BME280_pressure;Samples;Min_cycle;Max_cycle;Signal;HPM_P1;HPM_P2
2021/07/04 00:00:58;;;;;;;7.78;6.93;;;15.70;99.90;;;;;;6251945;28;20060;-79
2021/07/04 00:03:59;;;;;;;9.38;7.70;;;15.80;99.90;;;;;;6253376;28;20386;-79
2021/07/04 00:06:59;;;;;;;9.25;7.50;;;15.90;99.90;;;;;;6253049;28;20405;-79
2021/07/04 00:10:00;;;;;;;11.23;7.63;;;16.00;99.90;;;;;;6276869;28;20060;-78
2021/07/04 00:13:01;;;;;;;8.27;7.47;;;15.80;99.90;;;;;;6252776;28;20120;-78
2021/07/04 00:16:01;;;;;;;8.40;7.20;;;15.90;99.90;;;;;;6294695;28;20067;-79
2021/07/04 00:19:02;;;;;;;8.02;6.72;;;16.00;99.90;;;;;;6276619;28;20105;-79
2021/07/04 00:22:03;;;;;;;11.50;7.15;;;15.90;99.90;;;;;;6252353;28;20108;-79
2021/07/04 00:25:06;;;;;;;9.23;7.00;;;15.90;99.90;;;;;;6260193;28;20119;-79
2021/07/04 00:28:06;;;;;;;7.05;6.35;;;15.90;99.90;;;;;;6275797;28;20042;-79
2021/07/04 00:31:07;;;;;;;8.73;7.28;;;15.90;99.90;;;;;;6252802;28;20048;-79
2021/07/04 00:34:07;;;;;;;7.70;6.80;;;16.00;99.90;;;;;;6275728;28;20040;-79
2021/07/04 00:37:09;;;;;;;7.47;6.63;;;16.00;99.90;;;;;;6275919;28;20037;-79
2021/07/04 00:40:10;;;;;;;12.63;6.78;;;16.00;99.90;;;;;;6252054;28;20136;-80
2021/07/04 00:43:11;;;;;;;8.80;7.88;;;16.00;99.90;;;;;;6275632;28;20038;-78
2021/07/04 00:46:12;;;;;;;12.52;7.20;;;16.00;99.90;;;;;;6252481;28;20490;-79
2021/07/04 00:49:12;;;;;;;13.93;7.38;;;16.20;99.90;;;;;;6293944;28;20190;-79
2021/07/04 00:52:14;;;;;;;8.57;6.70;;;15.90;99.90;;;;;;6259638;28;20039;-79
2021/07/04 00:55:15;;;;;;;10.48;7.35;;;15.90;99.90;;;;;;6275545;28;20078;-78
2021/07/04 00:58:16;;;;;;;7.70;6.90;;;15.80;99.90;;;;;;6276052;28;20032;-78
2021/07/04 01:01:16;;;;;;;9.68;6.80;;;15.90;99.90;;;;;;6293032;28;20036;-78
2021/07/04 01:04:17;;;;;;;9.85;7.28;;;15.90;99.90;;;;;;6275465;28;20064;-79
2021/07/04 01:07:17;;;;;;;10.07;7.90;;;15.90;99.90;;;;;;6251437;28;20029;-78
2021/07/04 01:10:20;;;;;;;10.35;7.55;;;15.80;99.90;;;;;;6241937;28;20040;-79
2021/07/04 01:13:21;;;;;;;8.95;7.28;;;15.80;99.90;;;;;;6275065;28;20039;-79
2021/07/04 01:16:21;;;;;;;10.13;7.22;;;15.80;99.90;;;;;;6275358;28;20028;-79
2021/07/04 01:19:22;;;;;;;9.00;7.57;;;15.70;99.90;;;;;;6275172;28;20048;-79
2021/07/04 01:22:22;;;;;;;8.52;7.55;;;15.90;99.90;;;;;;6261765;28;20035;-79
2021/07/04 01:25:23;;;;;;;8.07;7.20;;;15.80;99.90;;;;;;6242481;28;20029;-78
2021/07/04 01:28:24;;;;;;;8.32;7.35;;;15.90;99.90;;;;;;6274562;28;20459;-78
2021/07/04 01:31:25;;;;;;;8.15;7.22;;;15.90;99.90;;;;;;6275244;28;20025;-78
2021/07/04 01:34:25;;;;;;;8.27;7.47;;;15.90;99.90;;;;;;6274455;28;20466;-79
2021/07/04 01:37:26;;;;;;;8.82;7.28;;;15.90;99.90;;;;;;6292394;28;20032;-79
2021/07/04 01:40:27;;;;;;;9.15;7.03;;;15.90;99.90;;;;;;6283030;28;20137;-78
2021/07/04 01:43:27;;;;;;;9.35;7.32;;;15.90;99.90;;;;;;6274743;28;20470;-79
2021/07/04 01:46:28;;;;;;;9.63;7.25;;;15.90;99.90;;;;;;6250683;28;20052;-80
2021/07/04 01:49:28;;;;;;;9.27;7.43;;;16.00;99.90;;;;;;6257786;28;20170;-79
2021/07/04 01:52:29;;;;;;;10.48;7.57;;;16.00;99.90;;;;;;6255166;28;20075;-79
2021/07/04 01:55:29;;;;;;;8.57;7.15;;;15.80;99.90;;;;;;6267064;28;20112;-79
2021/07/04 01:58:30;;;;;;;8.13;7.22;;;15.80;99.90;;;;;;6274591;28;20048;-79
2021/07/04 02:01:31;;;;;;;11.25;7.82;;;16.00;99.90;;;;;;6292132;28;20032;-79
2021/07/04 02:04:36;;;;;;;7.93;7.07;;;15.70;99.90;;;;;;6292539;28;20033;-78
2021/07/04 02:07:37;;;;;;;8.60;7.70;;;15.80;99.90;;;;;;6258200;28;20078;-79
2021/07/04 02:10:38;;;;;;;8.77;7.28;;;15.90;99.90;;;;;;6274007;28;20032;-79
2021/07/04 02:13:39;;;;;;;13.00;7.70;;;;;;;;;;6271656;28;20032;-79
2021/07/04 02:16:40;;;;;;;13.98;7.53;;;;;;;;;;6291624;28;20465;-78
2021/07/04 02:19:41;;;;;;;8.77;7.53;;;;;;;;;;6274395;28;20094;-79
2021/07/04 02:22:42;;;;;;;9.10;7.45;;;15.90;99.90;;;;;;6259005;28;20042;-78
2021/07/04 02:25:43;;;;;;;9.00;8.10;;;;;;;;;;6255139;28;20116;-78
2021/07/04 02:28:44;;;;;;;9.88;8.52;;;;;;;;;;6279454;28;20036;-78
2021/07/04 02:31:45;;;;;;;8.77;7.88;;;;;;;;;;6279020;28;20034;-79
2021/07/04 02:34:46;;;;;;;8.43;7.43;;;;;;;;;;6278991;28;20028;-79
2021/07/04 02:37:47;;;;;;;8.77;7.88;;;;;;;;;;6254995;28;20075;-79
2021/07/04 02:40:48;;;;;;;10.13;7.80;;;15.70;99.90;;;;;;6297154;28;20050;-79
2021/07/04 02:43:49;;;;;;;12.70;7.60;;;15.90;99.90;;;;;;6297078;28;20379;-79
2021/07/04 02:46:49;;;;;;;10.13;7.18;;;15.80;99.90;;;;;;6295629;28;20462;-79
2021/07/04 02:49:50;;;;;;;12.55;7.97;;;16.10;99.90;;;;;;6295540;28;20032;-79
2021/07/04 02:52:51;;;;;;;8.68;6.85;;;15.50;99.90;;;;;;6279192;28;20047;-79
2021/07/04 02:55:52;;;;;;;13.27;8.33;;;15.90;99.90;;;;;;6279134;28;20028;-79
2021/07/04 02:58:52;;;;;;;10.27;7.88;;;15.70;99.90;;;;;;6278907;28;20269;-79
2021/07/04 03:01:53;;;;;;;8.88;7.05;;;;;;;;;;6297156;28;20036;-79
2021/07/04 03:04:54;;;;;;;11.32;7.38;;;15.80;99.90;;;;;;6296513;28;20489;-79
2021/07/04 03:07:55;;;;;;;11.57;8.02;;;15.90;99.90;;;;;;6278561;28;20115;-80
2021/07/04 03:10:55;;;;;;;8.82;7.80;;;15.80;99.90;;;;;;6279084;28;20074;-79
2021/07/04 03:13:56;;;;;;;8.52;7.70;;;15.80;99.90;;;;;;6296606;28;20028;-80
2021/07/04 03:16:56;;;;;;;8.82;7.32;;;15.80;99.90;;;;;;6296608;28;20075;-79
2021/07/04 03:19:57;;;;;;;8.70;7.07;;;15.80;99.90;;;;;;6295670;28;20477;-79
2021/07/04 03:22:57;;;;;;;11.27;7.32;;;15.80;99.90;;;;;;6278202;28;20032;-79
2021/07/04 03:25:58;;;;;;;10.98;7.07;;;15.80;99.90;;;;;;6295309;28;20035;-79
2021/07/04 03:28:59;;;;;;;8.15;7.35;;;15.80;99.90;;;;;;6278410;28;20044;-79
2021/07/04 03:31:59;;;;;;;10.18;7.05;;;15.90;99.90;;;;;;6277975;28;20045;-79
2021/07/04 03:35:00;;;;;;;9.10;7.40;;;15.90;99.90;;;;;;6278220;28;20423;-79
2021/07/04 03:38:01;;;;;;;9.05;6.85;;;15.80;99.90;;;;;;6294318;28;20063;-79
2021/07/04 03:41:01;;;;;;;9.10;7.50;;;15.80;99.90;;;;;;6277690;28;20035;-79
2021/07/04 03:44:02;;;;;;;9.38;7.65;;;15.80;99.90;;;;;;6277114;28;20032;-79
2021/07/04 03:47:03;;;;;;;10.50;8.27;;;16.00;99.90;;;;;;6277772;28;20035;-79
2021/07/04 03:50:05;;;;;;;9.27;7.63;;;15.60;99.90;;;;;;6277170;28;20379;-79
2021/07/04 03:53:05;;;;;;;9.73;7.90;;;15.70;99.90;;;;;;6277282;28;20428;-79
2021/07/04 03:56:06;;;;;;;8.82;8.00;;;15.70;99.90;;;;;;6253241;28;20083;-79
2021/07/04 03:59:06;;;;;;;9.48;7.43;;;15.70;99.90;;;;;;6260307;28;20477;-78
2021/07/04 04:02:07;;;;;;;12.48;8.05;;;16.00;99.90;;;;;;6295394;28;20031;-80
2021/07/04 04:05:08;;;;;;;10.32;8.25;;;15.70;99.90;;;;;;6252760;28;20068;-80
2021/07/04 04:08:09;;;;;;;11.02;7.70;;;15.80;99.90;;;;;;6253193;28;20041;-79
2021/07/04 04:11:10;;;;;;;10.55;7.32;;;15.80;99.90;;;;;;6243926;28;20032;-80
2021/07/04 04:14:10;;;;;;;9.40;8.40;;;15.70;99.90;;;;;;6253132;28;20490;-79
2021/07/04 04:17:12;;;;;;;8.90;7.90;;;15.80;99.90;;;;;;6276001;28;20060;-80
2021/07/04 04:20:13;;;;;;;9.90;7.88;;;15.80;99.90;;;;;;6271342;28;20029;-80
2021/07/04 04:23:13;;;;;;;8.85;8.00;;;15.80;99.90;;;;;;6259910;28;20050;-80
2021/07/04 04:26:14;;;;;;;8.48;7.57;;;15.90;99.90;;;;;;6259497;28;20039;-80
2021/07/04 04:29:14;;;;;;;7.88;6.95;;;15.90;99.90;;;;;;6276059;28;20047;-80
2021/07/04 04:32:15;;;;;;;8.02;7.22;;;15.90;99.90;;;;;;6276561;28;20032;-80
2021/07/04 04:35:16;;;;;;;8.40;7.40;;;16.10;99.90;;;;;;6276254;28;20066;-80
2021/07/04 04:38:16;;;;;;;8.43;7.05;;;16.00;99.90;;;;;;6255441;28;20102;-80
2021/07/04 04:41:19;;;;;;;10.85;6.88;;;16.10;99.90;;;;;;6276389;28;20032;-80
2021/07/04 04:44:19;;;;;;;10.05;8.02;;;16.10;99.90;;;;;;6260080;28;20115;-81
2021/07/04 04:47:20;;;;;;;9.00;7.75;;;16.00;99.90;;;;;;6292464;28;20032;-81
2021/07/04 04:50:20;;;;;;;10.05;7.93;;;16.00;99.90;;;;;;6276283;28;20115;-80
2021/07/04 04:53:21;;;;;;;9.45;8.40;;;15.90;99.90;;;;;;6293012;28;20129;-79
2021/07/04 04:56:22;;;;;;;12.85;8.98;;;15.90;99.90;;;;;;6276333;28;20040;-80
2021/07/04 04:59:22;;;;;;;10.02;8.18;;;15.90;99.90;;;;;;6275949;28;20116;-80
2021/07/04 05:02:23;;;;;;;10.35;8.50;;;16.00;99.90;;;;;;6292877;28;20032;-80
2021/07/04 05:05:24;;;;;;;9.90;7.72;;;;;;;;;;6292632;28;20139;-80
2021/07/04 05:08:25;;;;;;;9.57;7.40;;;16.20;99.90;;;;;;6293708;28;20421;-80
2021/07/04 05:11:26;;;;;;;10.55;7.82;;;16.60;99.90;;;;;;6293547;28;20067;-80
2021/07/04 05:14:27;;;;;;;8.20;7.40;;;17.20;99.90;;;;;;6275804;28;20055;-80
2021/07/04 05:17:27;;;;;;;9.32;7.35;;;17.70;99.90;;;;;;6293379;28;20036;-79
2021/07/04 05:20:28;;;;;;;8.32;7.20;;;18.50;99.90;;;;;;6293383;28;20086;-80
2021/07/04 05:23:28;;;;;;;11.30;7.60;;;18.90;99.90;;;;;;6292482;28;20170;-80
2021/07/04 05:26:29;;;;;;;10.68;7.15;;;19.30;99.90;;;;;;6275274;28;20041;-80
2021/07/04 05:29:30;;;;;;;8.55;6.25;;;20.10;99.90;;;;;;6291809;28;20028;-80
2021/07/04 05:32:30;;;;;;;7.85;7.05;;;20.80;99.90;;;;;;6274994;28;20028;-80
2021/07/04 05:35:31;;;;;;;6.93;6.00;;;20.60;99.90;;;;;;6275395;28;20024;-80
2021/07/04 05:38:34;;;;;;;7.47;6.55;;;20.50;99.90;;;;;;6258279;28;20048;-79
2021/07/04 05:41:34;;;;;;;8.82;7.07;;;20.60;99.90;;;;;;6275199;28;20074;-80
2021/07/04 05:44:35;;;;;;;8.50;7.00;;;21.30;99.90;;;;;;6292812;28;20029;-80
2021/07/04 05:47:36;;;;;;;9.77;7.20;;;22.00;99.90;;;;;;6292634;28;20067;-80
2021/07/04 05:50:37;;;;;;;7.30;6.60;;;22.40;99.90;;;;;;6274661;28;20628;-80
2021/07/04 05:53:37;;;;;;;7.80;5.90;;;22.60;99.90;;;;;;6258148;28;20066;-80
2021/07/04 05:56:39;;;;;;;7.72;6.68;;;;;;;;;;6273865;28;20082;-79
2021/07/04 05:59:40;;;;;;;6.93;6.20;;;;;;;;;;6274227;28;20024;-79
2021/07/04 06:02:41;;;;;;;8.30;6.72;;;;;;;;;;6274646;28;20028;-79
2021/07/04 06:05:42;;;;;;;6.65;6.00;;;;;;;;;;6274269;28;20033;-79
2021/07/04 06:08:43;;;;;;;7.90;6.45;;;;;;;;;;6292276;28;20359;-80
2021/07/04 06:11:43;;;;;;;7.45;6.63;;;20.90;99.90;;;;;;6291811;28;20031;-78
2021/07/04 06:14:44;;;;;;;7.93;6.90;;;;;;;;;;6291942;28;20131;-79
2021/07/04 06:17:45;;;;;;;10.52;6.63;;;;;;;;;;6292402;28;20036;-79
2021/07/04 06:20:46;;;;;;;7.22;6.50;;;;;;;;;;6292079;28;20037;-79
2021/07/04 06:23:47;;;;;;;7.55;6.65;;;20.30;99.90;;;;;;6274105;28;20032;-79
2021/07/04 06:26:48;;;;;;;7.57;6.85;;;19.90;99.90;;;;;;6292511;28;20348;-77
2021/07/04 06:29:48;;;;;;;7.90;6.88;;;19.80;99.90;;;;;;6283334;28;20035;-78
2021/07/04 06:32:49;;;;;;;8.15;7.10;;;19.70;99.90;;;;;;6291561;28;20040;-77
2021/07/04 06:35:50;;;;;;;7.57;6.88;;;19.90;99.90;;;;;;6273983;28;20604;-78
2021/07/04 06:38:51;;;;;;;11.07;7.25;;;20.30;99.90;;;;;;6273639;28;20045;-78
2021/07/04 06:41:51;;;;;;;8.23;7.43;;;19.70;99.90;;;;;;6292065;28;20066;-76
2021/07/04 06:44:52;;;;;;;7.40;6.70;;;19.70;99.90;;;;;;6291668;28;20020;-77
2021/07/04 06:47:52;;;;;;;8.75;6.88;;;19.70;99.90;;;;;;6291683;28;20044;-76
2021/07/04 06:50:53;;;;;;;6.60;6.00;;;19.70;99.90;;;;;;6292112;28;20032;-75
2021/07/04 06:53:53;;;;;;;6.78;6.07;;;19.70;99.90;;;;;;6291400;28;20043;-76
2021/07/04 06:56:54;;;;;;;11.18;6.25;;;19.70;99.90;;;;;;6292034;28;20107;-75
2021/07/04 07:00:06;;;;;;;6.82;6.00;;;19.70;99.90;;;;;;6291593;28;20036;-76
2021/07/04 07:03:07;;;;;;;7.45;6.20;;;19.70;99.90;;;;;;6262573;28;20108;-77
2021/07/04 07:06:08;;;;;;;7.60;6.50;;;19.70;99.90;;;;;;6267942;28;20036;-76
2021/07/04 07:09:08;;;;;;;7.70;6.10;;;19.80;99.90;;;;;;6292996;28;20040;-76
2021/07/04 07:12:09;;;;;;;6.22;5.63;;;20.00;99.90;;;;;;6295736;28;20029;-76
2021/07/04 07:15:10;;;;;;;7.00;6.03;;;20.20;99.90;;;;;;6278296;28;20056;-76
2021/07/04 07:18:11;;;;;;;6.78;6.07;;;20.30;99.90;;;;;;6275232;28;20045;-76
2021/07/04 07:21:12;;;;;;;8.27;6.45;;;20.60;99.90;;;;;;6292630;28;20984;-77
2021/07/04 07:24:13;;;;;;;8.18;6.20;;;20.90;99.90;;;;;;6296137;28;20086;-77
2021/07/04 07:27:13;;;;;;;7.65;6.35;;;21.20;99.90;;;;;;6295234;28;20041;-76
2021/07/04 07:30:15;;;;;;;8.40;6.07;;;21.50;99.90;;;;;;6295856;28;20079;-77
2021/07/04 07:33:16;;;;;;;6.53;5.93;;;21.60;99.90;;;;;;6295438;28;20032;-77
2021/07/04 07:36:17;;;;;;;6.90;6.07;;;21.70;99.90;;;;;;6295126;28;20112;-77
2021/07/04 07:39:17;;;;;;;7.32;6.68;;;21.80;99.90;;;;;;6295613;28;20053;-76
2021/07/04 07:42:18;;;;;;;7.93;5.80;;;21.90;99.90;;;;;;6271612;28;20466;-76
2021/07/04 07:45:18;;;;;;;8.52;6.40;;;21.90;99.90;;;;;;6271731;28;20029;-76
2021/07/04 07:48:19;;;;;;;8.70;6.40;;;21.90;99.90;;;;;;6271166;28;20040;-76
2021/07/04 07:51:19;;;;;;;7.72;6.20;;;21.70;99.90;;;;;;6271596;28;20541;-75
2021/07/04 07:54:20;;;;;;;6.93;5.90;;;21.50;99.90;;;;;;6295009;28;20055;-77
2021/07/04 07:57:21;;;;;;;6.95;5.95;;;21.20;99.90;;;;;;6295017;28;20048;-79
2021/07/04 08:00:22;;;;;;;9.30;6.63;;;21.10;99.90;;;;;;6276810;28;20422;-78
2021/07/04 08:03:22;;;;;;;9.48;6.95;;;21.10;99.90;;;;;;6277207;28;20029;-78
2021/07/04 08:06:23;;;;;;;6.55;5.95;;;21.20;99.90;;;;;;6294610;28;20043;-78
2021/07/04 08:09:23;;;;;;;6.40;5.80;;;21.30;99.90;;;;;;6294837;28;20044;-76
2021/07/04 08:12:24;;;;;;;9.73;6.20;;;22.30;99.90;;;;;;6276644;28;20028;-76
2021/07/04 08:15:25;;;;;;;6.60;5.90;;;21.40;99.90;;;;;;6294291;28;20028;-76
2021/07/04 08:18:25;;;;;;;7.05;5.78;;;21.30;99.90;;;;;;6294321;28;20029;-77
2021/07/04 08:21:29;;;;;;;6.68;5.97;;;21.30;99.90;;;;;;6275612;28;20127;-76
2021/07/04 08:24:30;;;;;;;6.97;6.13;;;21.30;99.90;;;;;;6294090;28;20024;-77
2021/07/04 08:27:30;;;;;;;5.97;5.38;;;21.30;99.90;;;;;;6293788;28;20440;-77
2021/07/04 08:30:31;;;;;;;6.25;5.45;;;21.20;99.90;;;;;;6294070;28;20024;-76
2021/07/04 08:33:32;;;;;;;6.00;5.50;;;21.00;99.90;;;;;;6293821;28;20090;-76
2021/07/04 08:36:32;;;;;;;8.43;6.07;;;20.90;99.90;;;;;;6294476;28;20417;-76
2021/07/04 08:39:33;;;;;;;6.57;5.97;;;20.80;99.90;;;;;;6293922;28;20059;-76
2021/07/04 08:42:34;;;;;;;6.63;5.93;;;20.80;99.90;;;;;;6294193;28;20031;-77
2021/07/04 08:45:38;;;;;;;8.38;5.88;;;20.80;99.90;;;;;;6294386;28;20032;-77
2021/07/04 08:48:40;;;;;;;6.47;5.88;;;20.80;99.90;;;;;;6293655;28;20036;-77
2021/07/04 08:51:42;;;;;;;6.28;5.68;;;20.90;99.90;;;;;;6293870;28;20172;-76
2021/07/04 08:54:42;;;;;;;9.20;6.20;;;20.90;99.90;;;;;;6275818;28;20039;-76
2021/07/04 08:57:43;;;;;;;7.70;6.28;;;21.00;99.90;;;;;;6293671;28;20045;-77
2021/07/04 09:00:44;;;;;;;6.57;5.43;;;21.10;99.90;;;;;;6293684;28;20044;-76
2021/07/04 09:03:51;;;;;;;8.73;5.82;;;21.20;99.90;;;;;;6293510;28;20048;-76
2021/07/04 09:06:55;;;;;;;6.43;5.35;;;21.30;99.90;;;;;;6293207;28;20032;-76
2021/07/04 09:10:10;;;;;;;6.57;5.97;;;21.70;99.90;;;;;;6293522;28;20120;-76
2021/07/04 09:13:24;;;;;;;6.72;5.95;;;22.00;99.90;;;;;;6292830;28;20109;-76
2021/07/04 09:16:24;;;;;;;10.80;5.78;;;21.60;99.90;;;;;;6293227;28;20115;-76
2021/07/04 09:19:25;;;;;;;6.18;5.57;;;;;;;;;;6292790;28;20397;-76
2021/07/04 09:22:28;;;;;;;9.00;6.03;;;21.40;99.90;;;;;;6275513;28;20029;-76
2021/07/04 09:25:32;;;;;;;7.28;6.55;;;21.80;99.90;;;;;;6293176;28;20107;-76
2021/07/04 09:28:33;;;;;;;6.38;5.53;;;;;;;;;;6292876;28;20063;-76
2021/07/04 09:31:34;;;;;;;6.40;5.47;;;;;;;;;;6292588;28;20451;-76
2021/07/04 09:34:34;;;;;;;8.40;5.50;;;21.90;99.90;;;;;;6293003;28;20036;-76
2021/07/04 09:37:45;;;;;;;6.53;5.18;;;22.00;99.90;;;;;;6292609;28;20032;-76
2021/07/04 09:40:47;;;;;;;6.32;5.63;;;22.40;99.90;;;;;;6292130;28;20123;-76
2021/07/04 09:43:48;;;;;;;6.00;5.13;;;22.50;99.90;;;;;;6263753;28;20037;-76
2021/07/04 09:47:18;;;;;;;6.30;5.70;;;22.70;99.90;;;;;;6268731;28;20398;-76
2021/07/04 09:50:19;;;;;;;6.03;5.30;;;;;;;;;;6291912;28;20093;-76
2021/07/04 09:53:21;;;;;;;5.22;4.72;;;22.90;99.90;;;;;;6292309;28;20458;-76
2021/07/04 09:56:25;;;;;;;5.55;5.05;;;23.10;99.70;;;;;;6274659;28;20608;-76
2021/07/04 09:59:32;;;;;;;5.93;5.20;;;23.00;99.20;;;;;;6292552;28;20068;-76
2021/07/04 10:02:32;;;;;;;6.28;4.60;;;23.20;99.90;;;;;;6292284;28;20029;-76
2021/07/04 10:05:33;;;;;;;5.50;5.00;;;23.40;99.60;;;;;;6274236;28;20386;-76
2021/07/04 10:08:35;;;;;;;4.75;4.30;;;23.40;98.10;;;;;;6292539;28;20421;-76
2021/07/04 10:11:36;;;;;;;5.03;4.53;;;;;;;;;;6292277;28;20036;-76
2021/07/04 10:14:37;;;;;;;5.43;4.93;;;22.20;98.60;;;;;;6292242;28;20032;-76
2021/07/04 10:17:37;;;;;;;5.47;4.97;;;23.40;99.10;;;;;;6274381;28;20035;-76
2021/07/04 10:20:39;;;;;;;5.67;5.03;;;23.40;98.40;;;;;;6292444;28;20370;-76
2021/07/04 10:23:47;;;;;;;5.95;5.35;;;23.30;98.60;;;;;;6291995;28;20075;-76
2021/07/04 10:26:48;;;;;;;6.68;5.60;;;23.70;99.00;;;;;;6274605;28;20040;-76
2021/07/04 10:29:49;;;;;;;5.33;4.80;;;24.10;98.50;;;;;;6274118;28;20135;-76
2021/07/04 10:33:15;;;;;;;5.40;4.90;;;24.60;97.00;;;;;;6291659;28;20029;-76
2021/07/04 10:36:21;;;;;;;7.95;4.68;;;25.00;95.50;;;;;;6291809;28;20429;-76
2021/07/04 10:39:22;;;;;;;5.22;4.28;;;25.70;94.80;;;;;;6292228;28;20060;-76
2021/07/04 10:42:22;;;;;;;4.83;4.33;;;26.30;95.70;;;;;;6292351;28;20028;-76
2021/07/04 10:45:41;;;;;;;4.57;3.43;;;26.80;94.00;;;;;;6278319;28;20032;-76
2021/07/04 10:48:55;;;;;;;3.90;3.20;;;27.10;93.10;;;;;;6295888;28;20044;-76
2021/07/04 10:52:03;;;;;;;3.38;2.95;;;27.50;91.60;;;;;;6297250;28;20457;-76
2021/07/04 10:55:11;;;;;;;5.38;2.97;;;28.10;90.60;;;;;;6297265;28;20028;-76
2021/07/04 10:58:11;;;;;;;3.05;2.75;;;28.30;87.40;;;;;;6295847;28;20458;-77
2021/07/04 11:01:47;;;;;;;2.90;2.70;;;28.50;83.60;;;;;;6297046;28;20036;-77
2021/07/04 11:04:52;;;;;;;2.72;2.50;;;28.30;80.60;;;;;;6296607;28;20032;-75
2021/07/04 11:07:52;;;;;;;2.97;2.70;;;27.80;80.20;;;;;;6296964;28;20040;-76
2021/07/04 11:10:54;;;;;;;3.70;2.67;;;27.90;82.80;;;;;;6296539;28;20059;-75
2021/07/04 11:13:55;;;;;;;;;;;28.30;83.70;;;;;;6297049;28;20466;-77
2021/07/04 11:17:02;;;;;;;2.95;2.67;;;28.30;81.00;;;;;;6295257;28;19930;-77
2021/07/04 11:20:07;;;;;;;4.32;2.90;;;28.30;78.90;;;;;;6278496;28;20115;-79
2021/07/04 11:23:08;;;;;;;4.35;2.85;;;27.90;79.80;;;;;;6277947;28;20040;-80
2021/07/04 11:26:15;;;;;;;3.40;3.10;;;27.30;93.60;;;;;;6296361;28;20027;-84
2021/07/04 11:29:16;;;;;;;3.83;2.83;;;27.30;99.30;;;;;;6295098;28;20043;-81
2021/07/04 11:32:23;;;;;;;3.23;2.70;;;27.40;94.10;;;;;;6295512;28;20040;-81
2021/07/04 11:35:23;;;;;;;3.20;2.90;;;27.60;98.90;;;;;;6278184;28;20128;-80
2021/07/04 11:38:25;;;;;;;4.80;3.10;;;28.10;92.00;;;;;;6294584;28;20040;-76
2021/07/04 11:41:29;;;;;;;4.07;2.72;;;28.60;98.60;;;;;;6295908;28;20644;-76
2021/07/04 11:44:30;;;;;;;3.42;2.75;;;28.60;97.20;;;;;;6295860;28;20039;-76
2021/07/04 11:47:30;;;;;;;3.17;2.80;;;28.80;89.70;;;;;;6295931;28;20033;-76
2021/07/04 11:50:45;;;;;;;3.60;2.40;;;28.70;76.10;;;;;;6295986;28;20032;-76
2021/07/04 11:53:49;;;;;;;3.78;3.13;;;29.00;91.00;;;;;;6295405;28;20027;-75
2021/07/04 11:56:50;;;;;;;3.72;2.50;;;;;;;;;;6295377;28;20052;-76
2021/07/04 12:00:09;;;;;;;7.00;3.40;;;28.70;86.00;;;;;;6295446;28;20470;-77
2021/07/04 12:03:10;;;;;;;3.10;2.80;;;28.50;75.50;;;;;;6294386;28;20037;-78
2021/07/04 12:06:10;;;;;;;3.80;2.80;;;28.60;80.90;;;;;;6277190;28;20041;-77
2021/07/04 12:09:11;;;;;;;6.10;3.00;;;28.60;77.20;;;;;;6295109;28;20048;-80
2021/07/04 12:12:28;;;;;;;2.50;2.30;;;28.50;74.00;;;;;;6293944;28;20063;-76
2021/07/04 12:15:30;;;;;;;3.03;2.72;;;28.10;74.30;;;;;;6293354;28;20402;-77
2021/07/04 12:18:35;;;;;;;;;;;27.40;74.30;;;;;;6277701;28;20025;-79
2021/07/04 12:21:37;;;;;;;5.30;2.47;;;26.60;72.50;;;;;;6293727;28;19909;-77
2021/07/04 12:24:47;;;;;;;2.88;2.55;;;26.50;75.20;;;;;;6293771;28;20048;-78
2021/07/04 12:27:52;;;;;;;2.53;2.33;;;26.30;77.20;;;;;;6293451;28;20032;-77
2021/07/04 12:30:53;;;;;;;2.88;2.63;;;26.20;77.20;;;;;;6294827;28;20028;-81
2021/07/04 12:33:53;;;;;;;3.00;2.70;;;26.30;80.80;;;;;;6276698;28;20148;-78
2021/07/04 12:36:54;;;;;;;3.87;2.70;;;26.00;80.90;;;;;;6277057;28;20115;-80
2021/07/04 12:40:11;;;;;;;7.90;3.03;;;26.00;82.20;;;;;;6276655;28;20811;-84
2021/07/04 12:43:13;;;;;;;3.13;2.83;;;25.90;82.10;;;;;;6276590;28;20037;-84
2021/07/04 12:46:19;;;;;;;8.20;3.10;;;25.90;82.20;;;;;;6276393;28;20024;-84
2021/07/04 12:49:19;;;;;;;3.22;2.92;;;25.90;82.60;;;;;;6277104;28;20033;-85
2021/07/04 12:52:20;;;;;;;3.13;2.73;;;26.00;83.90;;;;;;6276683;28;20112;-86
2021/07/04 12:55:37;;;;;;;4.30;2.40;;;26.00;84.20;;;;;;6276635;28;20035;-86
2021/07/04 12:58:39;;;;;;;4.03;2.50;;;26.10;83.20;;;;;;6276117;28;20032;-84
2021/07/04 13:01:40;;;;;;;3.28;2.65;;;25.90;78.00;;;;;;6259297;28;20470;-77
2021/07/04 13:04:48;;;;;;;2.97;2.60;;;25.90;77.80;;;;;;6276059;28;20033;-80
2021/07/04 13:07:52;;;;;;;3.22;2.70;;;26.20;79.20;;;;;;6291929;28;20028;-78
2021/07/04 13:10:52;;;;;;;4.50;2.90;;;26.20;96.10;;;;;;6276483;28;20081;-80
2021/07/04 13:14:01;;;;;;;3.77;2.40;;;26.50;96.10;;;;;;6275223;28;20028;-78
2021/07/04 13:17:04;;;;;;;3.25;2.47;;;26.00;95.50;;;;;;6292105;28;20021;-77
2021/07/04 13:20:23;;;;;;;3.63;2.60;;;26.10;86.40;;;;;;6293805;28;20409;-78
2021/07/04 13:23:23;;;;;;;6.85;2.70;;;26.10;96.30;;;;;;6291957;28;20060;-78
2021/07/04 13:26:34;;;;;;;4.37;2.40;;;25.90;96.40;;;;;;6293360;28;20051;-79
2021/07/04 13:29:41;;;;;;;4.70;2.90;;;25.50;86.80;;;;;;6275557;28;20040;-80
2021/07/04 13:32:57;;;;;;;2.67;2.47;;;25.40;76.00;;;;;;6276038;28;20035;-78
2021/07/04 13:36:14;;;;;;;4.40;2.97;;;25.10;77.20;;;;;;6292124;28;20044;-78
2021/07/04 13:39:15;;;;;;;3.53;2.92;;;25.10;78.40;;;;;;6275132;28;20048;-78
2021/07/04 13:42:16;;;;;;;3.40;2.50;;;25.10;90.60;;;;;;6293147;28;20490;-76
2021/07/04 13:45:26;;;;;;;5.00;2.90;;;26.20;90.20;;;;;;6292903;28;20117;-76
2021/07/04 13:48:28;;;;;;;3.10;2.78;;;24.80;90.30;;;;;;6292724;28;20070;-78
2021/07/04 13:51:28;;;;;;;;;;;24.80;90.60;;;;;;6292255;28;20124;-84
2021/07/04 13:54:32;;;;;;;2.88;2.58;;;24.80;81.90;;;;;;6272935;28;19913;-83
2021/07/04 13:57:32;;;;;;;4.28;2.78;;;24.70;91.00;;;;;;6273604;28;20158;-80
2021/07/04 14:00:34;;;;;;;3.40;2.83;;;24.80;87.70;;;;;;6291861;28;20032;-85
2021/07/04 14:03:34;;;;;;;3.28;2.20;;;24.80;80.90;;;;;;6258701;28;20112;-77
2021/07/04 14:06:35;;;;;;;3.50;2.43;;;24.80;77.00;;;;;;6291654;28;20386;-78
2021/07/04 14:09:36;;;;;;;2.73;2.10;;;24.50;77.50;;;;;;6292992;28;20110;-79
2021/07/04 14:12:37;;;;;;;2.45;2.10;;;23.60;92.70;;;;;;6293381;28;20462;-78
2021/07/04 14:15:37;;;;;;;2.25;2.03;;;23.60;80.40;;;;;;6274809;28;20038;-81
2021/07/04 14:18:38;;;;;;;2.00;1.83;;;23.00;81.70;;;;;;6294177;28;20027;-78
2021/07/04 14:21:38;;;;;;;2.30;2.10;;;22.80;84.00;;;;;;6296458;28;20033;-78
2021/07/04 14:24:39;;;;;;;2.10;1.90;;;22.60;82.50;;;;;;6297765;28;20119;-78
2021/07/04 14:27:40;;;;;;;2.53;1.98;;;22.50;84.10;;;;;;6296472;28;20032;-79
2021/07/04 14:30:40;;;;;;;3.08;1.95;;;22.10;84.20;;;;;;6296389;28;20024;-80
2021/07/04 14:33:41;;;;;;;2.00;1.90;;;22.20;85.10;;;;;;6296402;28;20094;-77
2021/07/04 14:36:42;;;;;;;3.55;1.60;;;22.00;88.30;;;;;;6262803;28;20132;-80
2021/07/04 14:39:43;;;;;;;3.65;1.88;;;21.80;91.00;;;;;;6279460;28;20057;-78
2021/07/04 14:42:43;;;;;;;6.32;2.40;;;21.30;93.90;;;;;;6262679;28;20058;-76
2021/07/04 14:45:44;;;;;;;2.15;1.95;;;20.70;99.70;;;;;;6297305;28;20108;-78
2021/07/04 14:48:45;;;;;;;2.67;2.22;;;20.50;99.90;;;;;;6295651;28;20044;-77
2021/07/04 14:51:49;;;;;;;4.90;2.53;;;19.90;99.90;;;;;;6297441;28;20039;-80
2021/07/04 14:54:55;;;;;;;6.20;3.88;;;19.90;99.90;;;;;;6297188;28;20470;-80
2021/07/04 14:57:56;;;;;;;3.63;2.20;;;19.60;99.90;;;;;;6280142;28;20502;-80
2021/07/04 15:00:57;;;;;;;9.73;2.70;;;19.70;99.90;;;;;;6278908;28;20072;-79
2021/07/04 15:03:57;;;;;;;1.70;1.60;;;19.90;99.90;;;;;;6278826;28;20116;-78
2021/07/04 15:06:58;;;;;;;4.63;2.10;;;19.70;99.90;;;;;;6278675;28;20412;-78
2021/07/04 15:09:59;;;;;;;2.25;1.73;;;19.80;99.90;;;;;;6296467;28;20464;-78
2021/07/04 15:12:59;;;;;;;1.75;1.65;;;19.70;99.90;;;;;;6295500;28;20023;-78
2021/07/04 15:16:00;;;;;;;3.17;1.80;;;19.60;99.90;;;;;;6294933;28;20052;-78
2021/07/04 15:19:01;;;;;;;1.20;1.05;;;19.60;99.90;;;;;;6295245;28;20386;-78
2021/07/04 15:22:02;;;;;;;1.17;1.17;;;19.60;99.90;;;;;;6278245;28;20066;-78
2021/07/04 15:25:03;;;;;;;2.17;1.50;;;19.60;99.90;;;;;;6295329;28;20021;-78
2021/07/04 15:28:04;;;;;;;2.25;1.30;;;19.50;99.90;;;;;;6278361;28;20546;-78
2021/07/04 15:31:04;;;;;;;3.65;2.03;;;19.30;99.90;;;;;;6294288;28;20035;-78
2021/07/04 15:34:05;;;;;;;3.10;1.83;;;19.10;99.90;;;;;;6294874;28;20032;-78
2021/07/04 15:37:06;;;;;;;2.50;1.90;;;19.20;99.90;;;;;;6294875;28;20028;-78
2021/07/04 15:40:07;;;;;;;3.40;2.38;;;19.30;99.90;;;;;;6278115;28;20079;-78
2021/07/04 15:43:07;;;;;;;4.78;1.90;;;19.30;99.90;;;;;;6294812;28;20029;-78
2021/07/04 15:46:08;;;;;;;5.30;1.95;;;19.50;99.90;;;;;;6294463;28;20039;-78
2021/07/04 15:49:09;;;;;;;5.57;2.50;;;19.80;99.90;;;;;;6277718;28;20041;-79
2021/07/04 15:52:09;;;;;;;4.30;2.50;;;19.80;99.90;;;;;;6294566;28;20036;-78
2021/07/04 15:55:10;;;;;;;5.97;2.40;;;19.90;99.90;;;;;;6294601;28;20119;-78